Time;durP1;ratioP1;P1;durP2;ratioP2;P2;SDS_P1;SDS_P2;PMS_P1;PMS_P2;Temp;Humidity;BMP_temperature;BMP_pressure;BME280_temperature;BME280_humidity;BME280_pressure;Samples;Min_cycle;Max_cycle;Signal;HPM_P1;HPM_P2
2022/12/06 00:01:44;;;;;;;81.90;67.30;;;;;;;5.50;73.73;100576.93;109311;1287;23096;-86
2022/12/06 00:04:16;;;;;;;81.20;67.30;;;;;;;5.51;73.73;100577.78;108880;1288;22362;-86
2022/12/06 00:06:47;;;;;;;87.00;71.60;;;;;;;5.54;73.78;100567.73;108996;1286;21917;-86
2022/12/06 00:09:17;;;;;;;86.80;71.40;;;;;;;5.56;73.78;100564.42;109018;1286;21927;-87
2022/12/06 00:11:46;;;;;;;88.50;74.40;;;;;;;5.54;73.61;100566.01;109099;1287;21964;-86
2022/12/06 00:14:17;;;;;;;91.70;72.60;;;;;;;5.48;73.47;100564.70;108695;1287;21933;-87
2022/12/06 00:16:47;;;;;;;99.10;74.40;;;;;;;5.38;73.45;100569.33;108850;1283;21992;-86
2022/12/06 00:19:19;;;;;;;108.50;81.60;;;;;;;5.29;73.52;100566.15;109271;1281;21949;-86
2022/12/06 00:21:48;;;;;;;100.70;78.00;;;;;;;5.25;73.70;100557.76;109465;1282;21929;-86
2022/12/06 00:24:20;;;;;;;94.90;76.30;;;;;;;5.25;73.97;100551.89;109526;1276;21958;-86
2022/12/06 00:26:51;;;;;;;102.30;80.20;;;;;;;5.27;73.95;100545.65;109566;1279;22628;-86
2022/12/06 00:29:23;;;;;;;102.90;82.60;;;;;;;5.24;73.77;100538.43;109398;1282;21790;-87
2022/12/06 00:31:52;;;;;;;132.20;107.70;;;;;;;5.17;73.69;100523.18;109351;1285;23065;-87
2022/12/06 00:34:21;;;;;;;124.90;102.10;;;;;;;5.13;73.88;100513.04;109076;1286;24527;-85
2022/12/06 00:36:50;;;;;;;159.50;128.70;;;;;;;5.16;74.10;100514.23;109298;1282;21897;-87
2022/12/06 00:39:19;;;;;;;136.30;108.10;;;;;;;5.20;74.18;100510.20;109551;1285;21940;-86
2022/12/06 00:41:47;;;;;;;159.80;123.40;;;;;;;5.24;74.12;100511.17;109361;1281;21943;-84
2022/12/06 00:44:16;;;;;;;142.50;110.40;;;;;;;5.28;74.13;100517.17;109471;1282;21953;-86
2022/12/06 00:46:45;;;;;;;143.80;106.70;;;;;;;5.29;74.14;100511.29;109364;1283;21955;-86
2022/12/06 00:49:14;;;;;;;128.40;93.70;;;;;;;5.31;74.02;100520.23;109303;1283;22027;-85
2022/12/06 00:51:43;;;;;;;108.20;87.90;;;;;;;5.26;73.97;100527.88;108969;1282;21948;-85
2022/12/06 00:54:14;;;;;;;104.50;82.70;;;;;;;5.19;73.98;100528.31;109087;1287;21994;-86
2022/12/06 00:56:42;;;;;;;104.60;83.30;;;;;;;5.13;74.07;100523.55;109328;1284;23638;-86
2022/12/06 00:59:11;;;;;;;99.30;81.60;;;;;;;5.08;74.16;100527.94;109273;1282;22743;-86
2022/12/06 01:01:40;;;;;;;96.50;77.80;;;;;;;5.07;74.14;100533.66;109233;1286;21835;-86
2022/12/06 01:04:10;;;;;;;109.20;80.70;;;;;;;5.06;74.30;100540.21;108972;1284;21969;-86
2022/12/06 01:06:39;;;;;;;106.30;83.80;;;;;;;5.06;74.34;100535.90;109192;1286;21946;-86
2022/12/06 01:09:11;;;;;;;99.50;79.90;;;;;;;5.01;74.30;100531.15;109532;1276;21908;-87
2022/12/06 01:11:39;;;;;;;95.30;79.20;;;;;;;4.92;74.29;100525.38;109806;1281;22408;-87
2022/12/06 01:14:09;;;;;;;95.20;78.20;;;;;;;4.85;74.36;100523.21;109827;1279;21967;-86
2022/12/06 01:16:38;;;;;;;100.80;80.70;;;;;;;4.83;74.46;100524.45;109689;1276;21954;-86
2022/12/06 01:19:07;;;;;;;104.30;81.20;;;;;;;4.84;74.66;100527.52;109552;1280;23166;-86
2022/12/06 01:21:36;;;;;;;107.60;84.20;;;;;;;4.87;74.69;100532.33;109722;1280;21937;-86
2022/12/06 01:24:05;;;;;;;104.20;85.00;;;;;;;4.91;74.72;100527.80;109329;1286;21943;-85
2022/12/06 01:26:35;;;;;;;94.10;77.60;;;;;;;4.92;74.73;100526.06;109265;1286;23615;-86
2022/12/06 01:29:04;;;;;;;90.50;74.50;;;;;;;4.92;74.58;100529.17;108818;1287;22128;-85
2022/12/06 01:31:33;;;;;;;93.70;75.50;;;;;;;4.92;74.66;100525.90;108791;1291;21948;-85
2022/12/06 01:34:16;;;;;;;86.00;70.70;;;;;;;4.94;74.78;100520.52;108670;1287;21965;-86
2022/12/06 01:36:44;;;;;;;86.00;70.60;;;;;;;4.97;74.81;100527.04;109197;1292;23113;-86
2022/12/06 01:39:14;;;;;;;91.60;75.20;;;;;;;4.95;74.74;100530.35;109016;1284;21852;-85
2022/12/06 01:41:43;;;;;;;91.00;73.50;;;;;;;4.97;74.84;100524.63;108952;1286;21945;-84
2022/12/06 01:44:48;;;;;;;88.40;70.40;;;;;;;4.95;74.91;100516.20;109313;1283;22150;-85
2022/12/06 01:47:36;;;;;;;86.80;71.80;;;;;;;4.93;74.94;100513.12;109408;1281;21954;-85
2022/12/06 01:50:20;;;;;;;88.50;71.70;;;;;;;4.92;74.95;100511.74;109190;1276;21949;-84
2022/12/06 01:52:57;;;;;;;80.10;64.60;;;;;;;4.91;75.04;100508.32;109081;1281;21981;-86
2022/12/06 01:55:31;;;;;;;76.80;65.50;;;;;;;4.89;74.89;100506.10;109173;1277;21932;-86
2022/12/06 01:58:09;;;;;;;78.60;65.40;;;;;;;4.90;75.16;100505.39;109426;1277;21968;-87
2022/12/06 02:03:52;;;;;;;;;;;;;;;4.99;75.31;100494.08;109730;1277;21940;-87
2022/12/06 02:06:23;;;;;;;80.90;62.40;;;;;;;4.94;75.46;100490.86;109349;1276;22667;-85
2022/12/06 02:08:55;;;;;;;82.00;65.20;;;;;;;4.98;75.46;100484.61;109399;1278;21907;-85
2022/12/06 02:11:24;;;;;;;79.00;64.70;;;;;;;5.01;75.41;100478.71;109150;1276;22015;-81
2022/12/06 02:14:01;;;;;;;75.60;64.10;;;;;;;5.04;75.24;100470.73;109419;1277;21966;-86
2022/12/06 02:17:22;;;;;;;68.80;59.20;;;;;;;5.05;75.02;100465.73;109562;1278;22693;-86
2022/12/06 02:20:18;;;;;;;80.30;63.30;;;;;;;4.98;75.04;100460.29;109000;1285;22018;-85
2022/12/06 02:23:10;;;;;;;76.50;64.50;;;;;;;5.00;75.27;100446.11;108797;1289;22020;-86
2022/12/06 02:26:27;;;;;;;73.70;61.30;;;;;;;5.04;75.38;100447.95;108791;1289;21916;-87
2022/12/06 02:29:52;;;;;;;74.50;61.70;;;;;;;5.08;75.45;100448.94;109146;1291;21973;-87
2022/12/06 02:32:59;;;;;;;78.50;60.80;;;;;;;5.10;75.38;100443.22;109206;1280;22112;-87
2022/12/06 02:35:43;;;;;;;80.50;63.80;;;;;;;5.12;75.33;100437.85;108552;1291;21973;-86
2022/12/06 02:38:42;;;;;;;71.80;61.30;;;;;;;5.15;75.34;100433.33;108624;1289;21991;-85
2022/12/06 02:41:39;;;;;;;72.70;61.50;;;;;;;5.14;75.09;100433.17;109379;1288;21960;-87
2022/12/06 02:44:18;;;;;;;74.60;58.50;;;;;;;5.08;75.01;100429.27;109114;1290;21966;-87
2022/12/06 02:46:49;;;;;;;72.30;61.50;;;;;;;5.03;74.92;100429.17;109343;1286;21732;-87
2022/12/06 02:49:23;;;;;;;69.90;60.60;;;;;;;5.01;75.07;100428.34;108524;1293;22138;-87
2022/12/06 02:51:53;;;;;;;70.80;62.90;;;;;;;4.99;75.26;100430.25;109239;1288;22425;-86
2022/12/06 02:54:25;;;;;;;71.20;61.90;;;;;;;5.03;75.36;100426.59;109400;1282;22133;-86
2022/12/06 02:56:54;;;;;;;64.10;57.10;;;;;;;5.08;75.33;100422.20;109318;1282;21942;-86
2022/12/06 02:59:23;;;;;;;66.30;57.80;;;;;;;5.11;75.35;100423.19;109359;1270;22000;-86
2022/12/06 03:01:58;;;;;;;73.80;60.40;;;;;;;5.14;75.35;100422.27;109165;1282;21963;-86
2022/12/06 03:04:48;;;;;;;68.00;58.90;;;;;;;5.16;75.20;100419.00;109257;1279;21956;-86
2022/12/06 03:07:47;;;;;;;75.60;64.50;;;;;;;5.15;75.14;100415.56;109525;1273;21910;-86
2022/12/06 03:10:26;;;;;;;80.50;65.60;;;;;;;5.11;75.08;100415.43;109392;1273;21931;-87
2022/12/06 03:13:13;;;;;;;78.10;66.60;;;;;;;5.05;75.03;100408.96;109634;1273;22058;-87
2022/12/06 03:16:14;;;;;;;82.60;68.80;;;;;;;4.97;75.11;100409.42;109507;1278;21897;-87
2022/12/06 03:19:03;;;;;;;84.20;68.90;;;;;;;4.89;75.20;100412.64;110183;1255;21951;-87
2022/12/06 03:21:52;;;;;;;81.50;69.90;;;;;;;4.83;75.37;100414.96;109744;1280;21949;-88
2022/12/06 03:24:23;;;;;;;83.30;72.00;;;;;;;4.78;75.44;100413.80;109689;1284;22031;-86
2022/12/06 03:26:55;;;;;;;78.50;67.30;;;;;;;4.78;75.56;100409.52;108984;1284;21963;-86
2022/12/06 03:29:29;;;;;;;74.10;65.50;;;;;;;4.78;75.63;100409.51;109282;1286;21943;-87
2022/12/06 03:32:03;;;;;;;76.80;66.50;;;;;;;4.73;75.65;100408.52;109025;1284;21939;-87
2022/12/06 03:34:40;;;;;;;76.50;68.00;;;;;;;4.71;75.80;100406.31;109091;1286;22078;-86
2022/12/06 03:37:15;;;;;;;75.10;63.80;;;;;;;4.73;75.91;100400.44;109118;1283;21967;-86
2022/12/06 03:40:13;;;;;;;75.50;64.70;;;;;;;4.76;75.97;100393.84;109448;1280;21912;-86
2022/12/06 03:42:42;;;;;;;73.40;64.30;;;;;;;4.80;76.11;100391.55;109609;1274;21928;-88
2022/12/06 03:45:13;;;;;;;84.80;74.70;;;;;;;4.87;76.15;100385.58;109261;1275;21923;-84
2022/12/06 03:47:57;;;;;;;77.50;67.60;;;;;;;4.93;76.07;100379.46;108934;1280;21901;-85
2022/12/06 03:50:35;;;;;;;77.10;66.50;;;;;;;4.98;76.02;100378.02;108597;1285;21959;-85
2022/12/06 03:53:07;;;;;;;72.30;63.20;;;;;;;5.01;75.96;100371.77;108282;1285;23706;-84
2022/12/06 03:55:36;;;;;;;72.80;62.10;;;;;;;5.04;75.95;100373.43;108178;1285;23597;-85
2022/12/06 03:58:05;;;;;;;87.50;70.90;;;;;;;5.07;75.83;100374.25;108472;1288;21973;-85
2022/12/06 04:00:33;;;;;;;73.30;61.00;;;;;;;5.09;75.73;100378.38;108123;1291;22741;-85
2022/12/06 04:03:02;;;;;;;75.00;63.70;;;;;;;5.11;75.89;100381.46;107906;1291;23642;-86
2022/12/06 04:05:31;;;;;;;81.40;66.30;;;;;;;5.13;75.90;100379.88;107937;1288;21961;-85
2022/12/06 04:08:00;;;;;;;87.10;68.30;;;;;;;5.13;75.75;100379.17;108683;1283;22422;-86
2022/12/06 04:10:29;;;;;;;74.70;61.60;;;;;;;5.16;75.84;100372.92;109369;1283;21957;-87
2022/12/06 04:13:01;;;;;;;79.60;63.60;;;;;;;5.20;75.86;100367.35;108758;1281;22623;-86
2022/12/06 04:15:35;;;;;;;81.80;69.40;;;;;;;5.23;75.77;100361.09;109264;1283;21961;-86
2022/12/06 04:18:17;;;;;;;78.20;67.90;;;;;;;5.22;75.60;100360.25;109280;1280;22683;-86
2022/12/06 04:23:39;;;;;;;75.10;63.90;;;;;;;5.21;75.49;100363.89;109411;1277;22345;-86
2022/12/06 04:26:13;;;;;;;73.20;65.10;;;;;;;5.21;75.59;100363.17;109391;1277;22080;-86
2022/12/06 04:39:54;;;;;;;80.40;67.10;;;;;;;5.01;75.82;100360.21;109778;1277;22109;-86
2022/12/06 04:45:31;;;;;;;73.10;63.20;;;;;;;4.97;75.85;100362.35;109575;1283;22767;-87
2022/12/06 04:47:59;;;;;;;84.00;67.60;;;;;;;4.96;75.89;100365.29;109658;1283;21822;-87
2022/12/06 04:50:28;;;;;;;83.60;67.60;;;;;;;4.98;75.94;100366.80;109599;1283;21873;-89
2022/12/06 04:52:57;;;;;;;91.20;75.60;;;;;;;5.03;75.91;100365.86;109690;1278;21958;-88
2022/12/06 04:55:26;;;;;;;82.60;71.70;;;;;;;5.05;75.98;100365.67;109676;1282;21998;-88
2022/12/06 04:57:55;;;;;;;84.40;75.00;;;;;;;5.06;75.91;100363.23;109598;1282;22750;-87
2022/12/06 05:00:24;;;;;;;84.00;73.60;;;;;;;5.10;75.92;100360.77;109570;1281;21943;-87
2022/12/06 05:02:53;;;;;;;91.40;78.00;;;;;;;5.10;75.86;100354.20;109610;1283;22215;-88
2022/12/06 05:05:23;;;;;;;86.50;77.00;;;;;;;5.11;75.71;100352.64;109563;1280;21909;-86
2022/12/06 05:07:52;;;;;;;89.60;78.60;;;;;;;5.14;75.73;100345.52;109526;1284;21940;-86
2022/12/06 05:10:21;;;;;;;100.80;83.50;;;;;;;5.17;75.87;100338.94;109379;1280;21961;-85
2022/12/06 05:12:50;;;;;;;139.20;119.40;;;;;;;5.20;75.87;100336.46;109301;1283;22730;-87
2022/12/06 05:15:20;;;;;;;130.70;111.40;;;;;;;5.24;75.95;100334.84;109248;1283;22814;-86
2022/12/06 05:17:54;;;;;;;107.50;89.20;;;;;;;5.28;75.86;100336.85;109515;1282;21911;-87
2022/12/06 05:20:23;;;;;;;116.70;91.50;;;;;;;5.31;75.75;100332.33;109452;1283;21946;-87
2022/12/06 05:22:52;;;;;;;115.80;92.60;;;;;;;5.33;75.65;100329.88;109432;1283;23581;-88
2022/12/06 05:25:21;;;;;;;122.30;104.30;;;;;;;5.34;75.52;100341.23;108962;1286;21970;-88
2022/12/06 05:27:50;;;;;;;111.70;99.50;;;;;;;5.31;75.38;100344.06;108163;1291;23074;-84
2022/12/06 05:30:19;;;;;;;109.10;97.50;;;;;;;5.28;75.32;100329.95;107770;1297;21979;-86
2022/12/06 05:32:48;;;;;;;115.10;97.90;;;;;;;5.27;75.60;100314.96;107908;1297;21967;-87
2022/12/06 05:35:24;;;;;;;110.80;98.70;;;;;;;5.27;75.68;100315.81;107935;1291;21965;-86
2022/12/06 05:37:53;;;;;;;114.00;98.60;;;;;;;5.28;75.62;100318.73;108499;1291;21966;-86
2022/12/06 05:40:22;;;;;;;104.50;89.90;;;;;;;5.29;75.54;100326.31;108121;1289;22007;-85
2022/12/06 05:42:53;;;;;;;112.20;99.90;;;;;;;5.29;75.53;100326.14;108424;1287;21988;-87
2022/12/06 05:45:22;;;;;;;111.00;98.90;;;;;;;5.30;75.59;100325.77;109046;1280;21943;-87
2022/12/06 05:47:51;;;;;;;111.50;99.40;;;;;;;5.31;75.61;100325.58;109203;1275;21904;-87
2022/12/06 05:50:20;;;;;;;114.60;102.20;;;;;;;5.32;75.59;100323.83;109100;1280;22762;-88
2022/12/06 05:52:55;;;;;;;112.80;100.50;;;;;;;5.33;75.45;100325.71;109370;1280;21955;-86
2022/12/06 05:55:26;;;;;;;114.20;101.40;;;;;;;5.35;75.55;100323.09;108857;1286;22096;-84
2022/12/06 05:57:55;;;;;;;124.70;104.50;;;;;;;5.37;75.63;100310.64;108337;1291;21993;-87
2022/12/06 06:00:24;;;;;;;117.10;103.30;;;;;;;5.40;75.60;100309.56;108509;1288;21977;-85
2022/12/06 06:02:53;;;;;;;139.40;111.00;;;;;;;5.42;75.54;100304.69;108676;1292;21972;-87
2022/12/06 06:05:22;;;;;;;125.30;105.20;;;;;;;5.44;75.46;100300.68;108363;1292;21972;-86
2022/12/06 06:07:51;;;;;;;115.20;99.60;;;;;;;5.46;75.40;100293.73;108275;1288;21955;-85
2022/12/06 06:10:22;;;;;;;106.00;92.30;;;;;;;5.48;75.25;100292.34;108589;1288;22091;-84
2022/12/06 06:12:51;;;;;;;113.70;97.00;;;;;;;5.48;75.18;100298.54;108244;1288;21997;-85
2022/12/06 06:15:21;;;;;;;118.60;103.50;;;;;;;5.50;75.04;100304.55;108619;1284;21960;-85
2022/12/06 06:17:52;;;;;;;105.60;94.10;;;;;;;5.49;75.12;100298.70;108772;1281;22350;-85
2022/12/06 06:20:21;;;;;;;90.40;80.70;;;;;;;5.48;75.16;100297.34;108741;1280;21964;-85
2022/12/06 06:22:50;;;;;;;91.20;81.30;;;;;;;5.47;75.06;100300.64;108766;1275;23158;-84
2022/12/06 06:25:19;;;;;;;94.90;84.50;;;;;;;5.45;75.07;100299.29;108852;1280;21950;-84
2022/12/06 06:27:48;;;;;;;93.80;82.70;;;;;;;5.43;75.20;100295.69;108897;1280;21973;-85
2022/12/06 06:30:17;;;;;;;92.60;82.80;;;;;;;5.43;75.26;100293.44;109336;1277;21943;-82
2022/12/06 06:32:48;;;;;;;93.20;83.60;;;;;;;5.43;75.10;100297.60;109261;1274;22273;-85
2022/12/06 06:35:17;;;;;;;97.00;84.70;;;;;;;5.41;75.09;100297.63;109351;1270;21951;-85
2022/12/06 06:37:47;;;;;;;94.50;81.40;;;;;;;5.38;75.14;100290.44;109492;1274;21945;-86
2022/12/06 06:40:16;;;;;;;90.50;79.00;;;;;;;5.37;75.19;100290.80;109199;1274;21922;-85
2022/12/06 06:42:45;;;;;;;88.10;77.60;;;;;;;5.38;75.21;100291.81;109486;1275;21976;-86
2022/12/06 06:45:14;;;;;;;94.10;79.70;;;;;;;5.38;75.26;100295.27;109290;1274;22106;-84
2022/12/06 06:47:43;;;;;;;89.60;76.00;;;;;;;5.40;75.25;100292.48;109371;1275;22175;-84
2022/12/06 06:50:13;;;;;;;94.30;80.40;;;;;;;5.41;75.27;100290.73;109339;1278;21943;-86
2022/12/06 06:52:42;;;;;;;110.40;89.70;;;;;;;5.43;75.31;100290.70;109347;1274;21929;-83
2022/12/06 06:55:11;;;;;;;98.70;87.60;;;;;;;5.42;75.17;100289.51;109693;1279;21941;-85
2022/12/06 06:57:40;;;;;;;93.10;81.20;;;;;;;5.46;75.13;100296.35;109741;1274;22556;-85
2022/12/06 07:00:10;;;;;;;90.00;79.80;;;;;;;5.47;75.14;100290.45;109634;1274;21934;-85
2022/12/06 07:02:39;;;;;;;96.70;80.80;;;;;;;5.49;75.05;100288.86;109504;1277;21965;-86
2022/12/06 07:05:08;;;;;;;95.10;81.40;;;;;;;5.51;75.06;100287.63;109426;1281;21973;-85
2022/12/06 07:07:38;;;;;;;101.30;82.10;;;;;;;5.53;75.09;100287.94;109355;1281;23090;-86
2022/12/06 07:10:10;;;;;;;101.60;83.00;;;;;;;5.55;75.02;100286.50;109361;1283;23031;-85
2022/12/06 07:12:39;;;;;;;;;;;;;;;5.56;74.94;100283.05;109182;1283;23569;-86
2022/12/06 07:15:08;;;;;;;98.00;82.70;;;;;;;5.47;75.07;100283.02;109333;1280;21938;-86
2022/12/06 07:17:37;;;;;;;100.70;80.00;;;;;;;5.48;75.05;100283.02;109144;1283;22025;-86
2022/12/06 07:20:07;;;;;;;101.80;85.80;;;;;;;5.50;75.00;100285.91;109098;1283;23652;-85
2022/12/06 07:22:36;;;;;;;230.70;145.00;;;;;;;5.51;74.83;100287.63;109223;1275;22068;-86
2022/12/06 07:25:06;;;;;;;116.70;98.70;;;;;;;5.49;74.74;100287.48;109352;1276;21929;-88
2022/12/06 07:27:35;;;;;;;105.50;87.10;;;;;;;5.44;74.59;100288.44;109278;1278;22917;-83
2022/12/06 07:30:06;;;;;;;98.00;83.10;;;;;;;5.37;74.63;100287.52;108969;1274;21948;-83
2022/12/06 07:32:36;;;;;;;107.50;89.70;;;;;;;5.34;74.89;100287.41;108975;1277;22703;-82
2022/12/06 07:35:05;;;;;;;129.90;100.90;;;;;;;5.33;75.01;100289.30;109056;1278;21900;-83
2022/12/06 07:37:34;;;;;;;124.60;98.70;;;;;;;5.35;75.10;100293.77;108880;1276;22000;-78
2022/12/06 07:40:05;;;;;;;132.00;103.00;;;;;;;5.33;75.07;100291.73;108853;1274;22373;-79
2022/12/06 07:45:22;;;;;;;125.80;101.80;;;;;;;5.22;75.17;100291.40;108588;1277;21933;-79
2022/12/06 07:47:51;;;;;;;119.30;98.00;;;;;;;5.14;75.15;100294.47;108744;1275;21982;-79
2022/12/06 07:50:21;;;;;;;117.50;96.30;;;;;;;5.03;75.21;100293.95;108546;1278;21941;-79
2022/12/06 07:52:50;;;;;;;126.50;96.70;;;;;;;4.97;75.33;100290.60;108563;1280;21952;-79
2022/12/06 07:55:20;;;;;;;123.60;102.40;;;;;;;4.94;75.56;100290.66;108246;1277;21940;-78
2022/12/06 07:57:48;;;;;;;132.60;107.50;;;;;;;4.95;75.75;100292.86;108338;1280;23118;-78
2022/12/06 08:00:18;;;;;;;117.60;98.70;;;;;;;4.96;75.85;100294.23;108521;1280;23050;-79
2022/12/06 08:02:47;;;;;;;112.80;96.90;;;;;;;4.95;75.88;100289.25;108514;1280;21942;-79
2022/12/06 08:05:15;;;;;;;115.80;98.50;;;;;;;4.93;75.93;100291.53;108368;1280;21975;-78
2022/12/06 08:07:44;;;;;;;118.60;95.90;;;;;;;4.90;76.02;100289.51;108533;1280;21911;-79
2022/12/06 08:10:13;;;;;;;120.40;98.70;;;;;;;4.85;76.05;100287.67;108084;1280;23686;-79
2022/12/06 08:12:42;;;;;;;123.40;98.40;;;;;;;4.80;76.09;100286.02;108219;1280;23007;-79
2022/12/06 08:15:14;;;;;;;118.70;97.00;;;;;;;4.77;76.18;100282.62;108029;1285;21952;-80
2022/12/06 08:17:44;;;;;;;121.80;101.20;;;;;;;4.78;76.37;100282.77;108466;1286;21921;-84
2022/12/06 08:20:15;;;;;;;131.90;102.80;;;;;;;4.83;76.54;100284.77;108642;1285;22025;-81
2022/12/06 08:22:44;;;;;;;137.40;107.90;;;;;;;4.89;76.60;100292.10;108211;1290;21978;-81
2022/12/06 08:25:13;;;;;;;125.50;103.70;;;;;;;4.96;76.65;100291.83;108279;1287;21971;-82
2022/12/06 08:27:42;;;;;;;126.50;102.20;;;;;;;5.02;76.66;100293.63;108427;1286;21960;-80
2022/12/06 08:30:11;;;;;;;115.60;96.40;;;;;;;5.08;76.65;100290.42;108611;1285;21965;-81
2022/12/06 08:32:40;;;;;;;117.20;100.30;;;;;;;5.13;76.52;100291.55;108473;1280;21975;-81
2022/12/06 08:35:10;;;;;;;124.50;105.00;;;;;;;5.18;76.60;100291.28;108493;1283;21915;-81
2022/12/06 08:37:39;;;;;;;128.40;103.80;;;;;;;5.25;76.70;100283.77;108432;1280;23038;-81
2022/12/06 08:40:10;;;;;;;127.50;104.80;;;;;;;5.30;76.62;100280.74;108378;1278;21932;-81
2022/12/06 08:42:40;;;;;;;118.50;101.60;;;;;;;5.36;76.60;100280.11;108886;1274;23023;-81
2022/12/06 08:45:10;;;;;;;117.40;102.70;;;;;;;5.43;76.68;100281.20;107990;1269;1458284;-81
2022/12/06 08:47:39;;;;;;;108.60;96.40;;;;;;;5.49;76.77;100280.58;108964;1274;21925;-80
2022/12/06 08:50:08;;;;;;;93.40;80.10;;;;;;;5.54;76.62;100279.11;108845;1280;21990;-81
2022/12/06 08:52:37;;;;;;;90.20;78.20;;;;;;;5.58;76.62;100282.48;108766;1280;22315;-80
2022/12/06 08:55:06;;;;;;;79.10;70.50;;;;;;;5.63;76.56;100282.56;108736;1281;21907;-81
2022/12/06 08:57:35;;;;;;;83.10;72.50;;;;;;;5.65;76.43;100280.63;108666;1280;23030;-80
2022/12/06 09:00:06;;;;;;;80.10;71.20;;;;;;;5.67;76.42;100281.11;108681;1280;22393;-80
2022/12/06 09:02:38;;;;;;;74.10;64.70;;;;;;;5.69;76.32;100279.01;108804;1280;21969;-79
2022/12/06 09:05:08;;;;;;;75.80;64.00;;;;;;;5.67;76.14;100269.71;108668;1280;22414;-80
2022/12/06 09:07:37;;;;;;;75.00;66.00;;;;;;;5.65;76.06;100267.34;108722;1276;21933;-79
2022/12/06 09:10:07;;;;;;;73.40;62.10;;;;;;;5.65;75.99;100266.48;109128;1280;21991;-81
2022/12/06 09:12:36;;;;;;;69.30;61.90;;;;;;;5.64;75.97;100262.70;109227;1279;21942;-80
2022/12/06 09:15:05;;;;;;;70.20;61.50;;;;;;;5.64;76.02;100264.41;109110;1277;21917;-80
2022/12/06 09:17:35;;;;;;;74.40;63.40;;;;;;;5.66;76.07;100266.11;108689;1283;23014;-80
2022/12/06 09:20:05;;;;;;;67.60;60.10;;;;;;;5.69;76.08;100265.19;108623;1283;23745;-79
2022/12/06 09:22:34;;;;;;;68.90;61.00;;;;;;;5.71;75.94;100267.58;108709;1283;22274;-80
2022/12/06 09:25:03;;;;;;;63.90;55.60;;;;;;;5.73;75.97;100269.08;108317;1285;21962;-80
2022/12/06 09:27:32;;;;;;;62.60;54.10;;;;;;;5.74;75.85;100270.46;108331;1277;21960;-79
2022/12/06 09:30:03;;;;;;;63.90;54.40;;;;;;;5.71;75.68;100262.05;108371;1285;21952;-80
2022/12/06 09:32:32;;;;;;;63.10;55.70;;;;;;;5.66;75.68;100260.94;108440;1281;22724;-80
2022/12/06 09:35:00;;;;;;;59.60;52.30;;;;;;;5.62;75.63;100255.14;108421;1280;21963;-80
2022/12/06 09:37:31;;;;;;;60.20;53.80;;;;;;;5.59;75.66;100255.73;108800;1278;23094;-80
2022/12/06 09:40:10;;;;;;;59.20;52.80;;;;;;;5.54;75.59;100256.66;108803;1278;23605;-80
2022/12/06 09:43:27;;;;;;;62.40;55.40;;;;;;;5.48;75.63;100254.34;108771;1278;23020;-80
2022/12/06 09:46:23;;;;;;;61.80;55.00;;;;;;;5.45;75.80;100247.86;108728;1280;21954;-79
2022/12/06 09:49:43;;;;;;;67.10;55.00;;;;;;;5.46;75.90;100246.79;108575;1280;21967;-79
2022/12/06 09:52:36;;;;;;;65.10;56.10;;;;;;;5.43;75.90;100237.71;108427;1286;21975;-79
2022/12/06 09:55:19;;;;;;;63.50;54.50;;;;;;;5.43;75.91;100236.33;108160;1284;22746;-80
2022/12/06 09:58:18;;;;;;;64.40;56.30;;;;;;;5.43;75.85;100229.93;108365;1286;22074;-80
2022/12/06 10:01:05;;;;;;;68.40;59.60;;;;;;;5.43;75.88;100228.04;108206;1278;22665;-79
2022/12/06 10:04:00;;;;;;;65.90;59.00;;;;;;;5.45;75.94;100226.62;108238;1286;21958;-79
2022/12/06 10:06:47;;;;;;;72.70;64.70;;;;;;;5.49;76.01;100222.23;108134;1286;22180;-79
2022/12/06 10:09:28;;;;;;;72.10;62.70;;;;;;;5.53;76.05;100218.88;108239;1286;21965;-80
2022/12/06 10:12:16;;;;;;;65.70;58.60;;;;;;;5.57;76.01;100214.84;108337;1286;21976;-79
2022/12/06 10:15:07;;;;;;;62.00;52.60;;;;;;;5.59;75.94;100210.31;108295;1286;23621;-80
2022/12/06 10:17:46;;;;;;;57.20;51.00;;;;;;;5.61;75.84;100205.96;107967;1289;22741;-80
2022/12/06 10:20:46;;;;;;;51.00;45.50;;;;;;;5.61;75.70;100201.30;108468;1280;21954;-79
2022/12/06 10:23:33;;;;;;;52.70;47.00;;;;;;;5.56;75.47;100197.60;108579;1281;24043;-84
2022/12/06 10:26:22;;;;;;;52.30;46.00;;;;;;;5.53;75.55;100195.58;108423;1286;21943;-81
2022/12/06 10:29:23;;;;;;;53.10;47.80;;;;;;;5.55;75.71;100186.73;108741;1284;21936;-83
2022/12/06 10:32:26;;;;;;;58.50;52.40;;;;;;;5.55;75.75;100185.35;108958;1283;22709;-81
2022/12/06 10:35:52;;;;;;;73.30;62.40;;;;;;;5.58;75.64;100188.05;108844;1282;21933;-84
2022/12/06 10:38:47;;;;;;;69.30;59.90;;;;;;;5.59;75.67;100189.75;108420;1288;22070;-84
2022/12/06 10:41:44;;;;;;;81.90;66.60;;;;;;;5.64;75.84;100185.16;108585;1281;21947;-84
2022/12/06 10:44:41;;;;;;;77.00;64.50;;;;;;;5.71;75.82;100181.07;108830;1284;21971;-82
2022/12/06 10:47:39;;;;;;;69.30;59.20;;;;;;;5.75;75.71;100184.09;108737;1281;21961;-84
2022/12/06 10:50:29;;;;;;;62.70;55.60;;;;;;;5.73;75.38;100180.52;108724;1284;21941;-79
2022/12/06 10:53:14;;;;;;;71.70;61.40;;;;;;;5.65;75.26;100176.35;108812;1283;22384;-85
2022/12/06 10:56:29;;;;;;;60.30;53.80;;;;;;;5.68;75.59;100182.51;108895;1278;24945;-87
2022/12/06 10:59:24;;;;;;;59.40;51.90;;;;;;;5.70;75.48;100179.88;109521;1274;21991;-88
2022/12/06 11:02:50;;;;;;;57.00;47.20;;;;;;;5.69;75.11;100176.09;109501;1274;22099;-86
2022/12/06 11:05:58;;;;;;;52.20;45.10;;;;;;;5.56;75.02;100171.87;109386;1280;21998;-86
2022/12/06 11:08:43;;;;;;;51.50;44.00;;;;;;;5.52;74.83;100174.02;109340;1280;21958;-83
2022/12/06 11:11:30;;;;;;;51.60;44.70;;;;;;;5.42;74.71;100167.98;109323;1279;21928;-84
2022/12/06 11:14:36;;;;;;;;;;;;;;;;;;;;;
2022/12/06 11:17:28;;;;;;;56.90;50.50;;;;;;;5.40;75.05;100156.14;109251;1280;21928;-89
2022/12/06 11:20:28;;;;;;;60.90;52.60;;;;;;;5.41;74.97;100147.84;109017;1282;23059;-85
2022/12/06 11:23:33;;;;;;;60.30;51.70;;;;;;;5.44;74.93;100150.19;108956;1280;23694;-86
2022/12/06 11:26:56;;;;;;;57.40;49.60;;;;;;;5.42;75.03;100143.66;110792;1253;21907;31
2022/12/06 11:29:41;;;;;;;43.30;38.60;;;;;;;5.50;75.02;100141.96;109715;1279;21727;-90
2022/12/06 11:32:44;;;;;;;40.40;36.10;;;;;;;5.51;74.80;100135.21;109734;1279;22713;-86
2022/12/06 11:35:27;;;;;;;37.40;33.50;;;;;;;5.57;74.74;100135.95;108978;1283;21977;-85
2022/12/06 11:38:06;;;;;;;34.90;31.20;;;;;;;5.58;74.49;100137.46;108920;1280;21977;-82
2022/12/06 11:41:01;;;;;;;;;;;;;;;;;;;;;
2022/12/06 11:43:41;;;;;;;39.30;34.80;;;;;;;5.57;74.29;100135.08;108714;1277;21929;-81
2022/12/06 11:46:24;;;;;;;53.30;43.10;;;;;;;5.60;74.29;100135.55;108670;1285;22051;-83
2022/12/06 11:49:33;;;;;;;46.70;41.30;;;;;;;5.60;74.24;100133.28;108757;1286;21964;-82
2022/12/06 11:52:40;;;;;;;48.00;39.30;;;;;;;5.58;74.14;100121.77;108576;1286;22357;-83
2022/12/06 11:55:43;;;;;;;43.80;37.40;;;;;;;5.54;74.10;100117.36;109286;1280;21857;-87
2022/12/06 11:58:36;;;;;;;36.20;32.30;;;;;;;5.52;74.18;100117.40;109039;1280;22247;-83
2022/12/06 12:01:13;;;;;;;36.40;32.50;;;;;;;5.55;74.23;100115.63;108708;1284;21938;-83
2022/12/06 12:04:34;;;;;;;34.80;30.20;;;;;;;5.56;74.01;100117.14;108792;1286;21963;-85
2022/12/06 12:07:21;;;;;;;37.10;32.20;;;;;;;5.56;74.11;100112.48;108742;1291;21962;-83
2022/12/06 12:10:02;;;;;;;34.40;30.50;;;;;;;5.61;74.17;100108.59;108338;1288;21979;-83
2022/12/06 12:15:59;;;;;;;53.50;41.30;;;;;;;5.66;73.87;100098.30;108596;1291;21970;-85
2022/12/06 12:19:33;;;;;;;47.80;39.20;;;;;;;5.67;73.78;100095.00;108702;1287;21968;-85
2022/12/06 12:23:10;;;;;;;;;;;;;;;;;;;;;